sensor_id;sensor_type;location;lat;lon;timestamp;temperature;humidity
12833;DHT22;6483;51.310;4.462;2023-04-03T00:01:16;0.10;99.90
12833;DHT22;6483;51.310;4.462;2023-04-03T00:03:43;1.00;99.90
12833;DHT22;6483;51.310;4.462;2023-04-03T00:06:09;2.00;99.90
12833;DHT22;6483;51.310;4.462;2023-04-03T00:08:38;0.10;99.90
12833;DHT22;6483;51.310;4.462;2023-04-03T00:11:07;0.00;99.90
12833;DHT22;6483;51.310;4.462;2023-04-03T00:13:34;-0.10;99.90
12833;DHT22;6483;51.310;4.462;2023-04-03T00:16:00;-0.10;99.90
12833;DHT22;6483;51.310;4.462;2023-04-03T00:18:26;-0.10;99.90
12833;DHT22;6483;51.310;4.462;2023-04-03T00:20:52;-0.20;99.90
12833;DHT22;6483;51.310;4.462;2023-04-03T00:23:23;-0.30;99.90
12833;DHT22;6483;51.310;4.462;2023-04-03T00:25:52;-0.20;99.90
12833;DHT22;6483;51.310;4.462;2023-04-03T00:28:18;-0.20;99.90
12833;DHT22;6483;51.310;4.462;2023-04-03T00:30:44;1.30;99.90
12833;DHT22;6483;51.310;4.462;2023-04-03T00:33:16;-0.30;99.90
12833;DHT22;6483;51.310;4.462;2023-04-03T00:35:42;0.00;99.90
12833;DHT22;6483;51.310;4.462;2023-04-03T00:38:08;-0.30;99.90
12833;DHT22;6483;51.310;4.462;2023-04-03T00:40:41;-0.30;99.90
12833;DHT22;6483;51.310;4.462;2023-04-03T00:43:21;-0.30;99.90
12833;DHT22;6483;51.310;4.462;2023-04-03T00:45:51;-0.30;99.90
12833;DHT22;6483;51.310;4.462;2023-04-03T00:48:42;-0.30;99.90
12833;DHT22;6483;51.310;4.462;2023-04-03T00:51:27;-0.30;99.90
12833;DHT22;6483;51.310;4.462;2023-04-03T00:54:00;-0.30;99.90
12833;DHT22;6483;51.310;4.462;2023-04-03T00:56:28;-0.30;99.90
12833;DHT22;6483;51.310;4.462;2023-04-03T00:59:32;-0.30;99.90
12833;DHT22;6483;51.310;4.462;2023-04-03T01:01:56;-0.30;99.90
12833;DHT22;6483;51.310;4.462;2023-04-03T01:04:30;1.70;99.90
12833;DHT22;6483;51.310;4.462;2023-04-03T01:07:02;-0.20;99.90
12833;DHT22;6483;51.310;4.462;2023-04-03T01:09:28;-0.30;99.90
12833;DHT22;6483;51.310;4.462;2023-04-03T01:12:23;1.00;99.90
12833;DHT22;6483;51.310;4.462;2023-04-03T01:15:10;-0.30;99.90
12833;DHT22;6483;51.310;4.462;2023-04-03T01:17:45;-0.20;99.90
12833;DHT22;6483;51.310;4.462;2023-04-03T01:22:59;-0.30;99.90
12833;DHT22;6483;51.310;4.462;2023-04-03T01:25:35;-0.30;99.90
12833;DHT22;6483;51.310;4.462;2023-04-03T01:28:02;-0.30;99.90
12833;DHT22;6483;51.310;4.462;2023-04-03T01:30:33;-0.30;99.90
12833;DHT22;6483;51.310;4.462;2023-04-03T01:32:59;1.80;99.90
12833;DHT22;6483;51.310;4.462;2023-04-03T01:35:28;-0.40;99.90
12833;DHT22;6483;51.310;4.462;2023-04-03T01:37:54;-0.50;99.90
12833;DHT22;6483;51.310;4.462;2023-04-03T01:40:22;1.00;99.90
12833;DHT22;6483;51.310;4.462;2023-04-03T01:42:48;-0.40;99.90
12833;DHT22;6483;51.310;4.462;2023-04-03T01:45:13;-0.40;99.90
12833;DHT22;6483;51.310;4.462;2023-04-03T01:47:39;-0.30;99.90
12833;DHT22;6483;51.310;4.462;2023-04-03T01:50:23;0.30;99.90
12833;DHT22;6483;51.310;4.462;2023-04-03T01:52:51;-0.30;99.90
12833;DHT22;6483;51.310;4.462;2023-04-03T01:55:17;-0.30;99.90
12833;DHT22;6483;51.310;4.462;2023-04-03T01:57:42;1.50;99.90
12833;DHT22;6483;51.310;4.462;2023-04-03T02:00:09;1.70;99.90
12833;DHT22;6483;51.310;4.462;2023-04-03T02:02:35;-0.50;99.90
12833;DHT22;6483;51.310;4.462;2023-04-03T02:05:01;1.10;99.90
12833;DHT22;6483;51.310;4.462;2023-04-03T02:07:29;1.50;99.90
12833;DHT22;6483;51.310;4.462;2023-04-03T02:09:55;-0.40;99.90
12833;DHT22;6483;51.310;4.462;2023-04-03T02:12:21;1.10;99.90
12833;DHT22;6483;51.310;4.462;2023-04-03T02:14:46;-0.10;99.90
12833;DHT22;6483;51.310;4.462;2023-04-03T02:17:15;-0.30;99.90
12833;DHT22;6483;51.310;4.462;2023-04-03T02:19:44;0.00;99.90
12833;DHT22;6483;51.310;4.462;2023-04-03T02:22:10;2.50;99.90
12833;DHT22;6483;51.310;4.462;2023-04-03T02:24:35;0.10;99.90
12833;DHT22;6483;51.310;4.462;2023-04-03T02:27:01;1.40;99.90
12833;DHT22;6483;51.310;4.462;2023-04-03T02:29:29;-0.30;99.90
12833;DHT22;6483;51.310;4.462;2023-04-03T02:31:55;-0.20;99.90
12833;DHT22;6483;51.310;4.462;2023-04-03T02:34:21;0.10;99.90
12833;DHT22;6483;51.310;4.462;2023-04-03T02:36:47;0.50;99.90
12833;DHT22;6483;51.310;4.462;2023-04-03T02:39:12;0.50;99.90
12833;DHT22;6483;51.310;4.462;2023-04-03T02:41:38;0.20;99.90
12833;DHT22;6483;51.310;4.462;2023-04-03T02:44:06;-0.10;99.90
12833;DHT22;6483;51.310;4.462;2023-04-03T02:46:32;1.50;99.90
12833;DHT22;6483;51.310;4.462;2023-04-03T02:49:01;-0.40;99.90
12833;DHT22;6483;51.310;4.462;2023-04-03T02:51:37;-0.40;99.90
12833;DHT22;6483;51.310;4.462;2023-04-03T02:54:03;-0.40;99.90
12833;DHT22;6483;51.310;4.462;2023-04-03T02:56:29;-0.50;99.90
12833;DHT22;6483;51.310;4.462;2023-04-03T02:58:54;1.30;99.90
12833;DHT22;6483;51.310;4.462;2023-04-03T03:01:23;0.20;99.90
12833;DHT22;6483;51.310;4.462;2023-04-03T03:03:49;-0.30;99.90
12833;DHT22;6483;51.310;4.462;2023-04-03T03:06:16;2.40;99.90
12833;DHT22;6483;51.310;4.462;2023-04-03T03:08:44;1.30;99.90
12833;DHT22;6483;51.310;4.462;2023-04-03T03:11:10;1.20;99.90
12833;DHT22;6483;51.310;4.462;2023-04-03T03:13:37;0.00;99.90
12833;DHT22;6483;51.310;4.462;2023-04-03T03:16:09;0.70;99.90
12833;DHT22;6483;51.310;4.462;2023-04-03T03:18:34;-0.40;99.90
12833;DHT22;6483;51.310;4.462;2023-04-03T03:21:02;-0.50;99.90
12833;DHT22;6483;51.310;4.462;2023-04-03T03:23:30;-0.50;99.90
12833;DHT22;6483;51.310;4.462;2023-04-03T03:26:15;-0.50;99.90
12833;DHT22;6483;51.310;4.462;2023-04-03T03:28:41;-0.50;99.90
12833;DHT22;6483;51.310;4.462;2023-04-03T03:31:10;-0.60;99.90
12833;DHT22;6483;51.310;4.462;2023-04-03T03:33:36;-0.70;99.90
12833;DHT22;6483;51.310;4.462;2023-04-03T03:36:02;-0.70;99.90
12833;DHT22;6483;51.310;4.462;2023-04-03T03:38:50;-0.70;99.90
12833;DHT22;6483;51.310;4.462;2023-04-03T03:41:19;-0.70;99.90
12833;DHT22;6483;51.310;4.462;2023-04-03T03:43:44;-0.70;99.90
12833;DHT22;6483;51.310;4.462;2023-04-03T03:46:10;1.50;99.90
12833;DHT22;6483;51.310;4.462;2023-04-03T03:48:36;0.20;99.90
12833;DHT22;6483;51.310;4.462;2023-04-03T03:51:01;-0.60;99.90
12833;DHT22;6483;51.310;4.462;2023-04-03T03:53:27;-0.60;99.90
12833;DHT22;6483;51.310;4.462;2023-04-03T03:55:55;-0.30;99.90
12833;DHT22;6483;51.310;4.462;2023-04-03T03:58:24;-0.60;99.90
12833;DHT22;6483;51.310;4.462;2023-04-03T04:00:52;-0.60;99.90
12833;DHT22;6483;51.310;4.462;2023-04-03T04:03:21;-0.70;99.90
12833;DHT22;6483;51.310;4.462;2023-04-03T04:05:46;-0.70;99.90
12833;DHT22;6483;51.310;4.462;2023-04-03T04:08:12;-0.70;99.90
12833;DHT22;6483;51.310;4.462;2023-04-03T04:10:38;-0.70;99.90
12833;DHT22;6483;51.310;4.462;2023-04-03T04:13:04;-0.70;99.90
12833;DHT22;6483;51.310;4.462;2023-04-03T04:15:32;-0.60;99.90
12833;DHT22;6483;51.310;4.462;2023-04-03T04:17:58;-0.60;99.90
12833;DHT22;6483;51.310;4.462;2023-04-03T04:20:24;0.20;99.90
12833;DHT22;6483;51.310;4.462;2023-04-03T04:22:49;1.20;99.90
12833;DHT22;6483;51.310;4.462;2023-04-03T04:25:15;-0.60;99.90
12833;DHT22;6483;51.310;4.462;2023-04-03T04:27:41;-0.50;99.90
12833;DHT22;6483;51.310;4.462;2023-04-03T04:30:10;-0.50;99.90
12833;DHT22;6483;51.310;4.462;2023-04-03T04:32:36;-0.60;99.90
12833;DHT22;6483;51.310;4.462;2023-04-03T04:35:03;-0.60;99.90
12833;DHT22;6483;51.310;4.462;2023-04-03T04:37:31;-0.60;99.90
12833;DHT22;6483;51.310;4.462;2023-04-03T04:39:57;1.10;99.90
12833;DHT22;6483;51.310;4.462;2023-04-03T04:42:25;0.40;99.90
12833;DHT22;6483;51.310;4.462;2023-04-03T04:44:51;-0.60;99.90
12833;DHT22;6483;51.310;4.462;2023-04-03T04:47:17;-0.60;99.90
12833;DHT22;6483;51.310;4.462;2023-04-03T04:49:43;-0.60;99.90
12833;DHT22;6483;51.310;4.462;2023-04-03T04:52:09;1.30;99.90
12833;DHT22;6483;51.310;4.462;2023-04-03T04:54:34;0.90;99.90
12833;DHT22;6483;51.310;4.462;2023-04-03T04:57:02;0.40;99.90
12833;DHT22;6483;51.310;4.462;2023-04-03T04:59:27;-0.10;99.90
12833;DHT22;6483;51.310;4.462;2023-04-03T05:01:56;0.70;99.90
12833;DHT22;6483;51.310;4.462;2023-04-03T05:04:23;-0.60;99.90
12833;DHT22;6483;51.310;4.462;2023-04-03T05:06:49;-0.10;99.90
12833;DHT22;6483;51.310;4.462;2023-04-03T05:09:17;-0.50;99.90
12833;DHT22;6483;51.310;4.462;2023-04-03T05:11:48;-0.70;99.90
12833;DHT22;6483;51.310;4.462;2023-04-03T05:14:13;0.40;99.90
12833;DHT22;6483;51.310;4.462;2023-04-03T05:16:39;-0.90;99.90
12833;DHT22;6483;51.310;4.462;2023-04-03T05:19:08;-0.90;99.90
12833;DHT22;6483;51.310;4.462;2023-04-03T05:21:37;-0.80;99.90
12833;DHT22;6483;51.310;4.462;2023-04-03T05:24:02;0.30;99.90
12833;DHT22;6483;51.310;4.462;2023-04-03T05:26:32;-0.70;99.90
12833;DHT22;6483;51.310;4.462;2023-04-03T05:28:58;-0.60;99.90
12833;DHT22;6483;51.310;4.462;2023-04-03T05:31:24;-0.60;99.90
12833;DHT22;6483;51.310;4.462;2023-04-03T05:33:52;-0.60;99.90
12833;DHT22;6483;51.310;4.462;2023-04-03T05:36:18;-0.60;99.90
12833;DHT22;6483;51.310;4.462;2023-04-03T05:38:51;-0.30;99.90
12833;DHT22;6483;51.310;4.462;2023-04-03T05:41:19;-0.40;99.90
12833;DHT22;6483;51.310;4.462;2023-04-03T05:43:46;-0.30;99.90
12833;DHT22;6483;51.310;4.462;2023-04-03T05:46:15;-0.20;99.90
12833;DHT22;6483;51.310;4.462;2023-04-03T05:48:42;-0.20;99.90
12833;DHT22;6483;51.310;4.462;2023-04-03T05:51:18;-0.10;99.90
12833;DHT22;6483;51.310;4.462;2023-04-03T05:53:44;-0.20;99.90
12833;DHT22;6483;51.310;4.462;2023-04-03T05:56:14;-0.10;99.90
12833;DHT22;6483;51.310;4.462;2023-04-03T05:58:43;-0.10;99.90
12833;DHT22;6483;51.310;4.462;2023-04-03T06:01:12;-0.10;99.90
12833;DHT22;6483;51.310;4.462;2023-04-03T06:03:39;0.70;99.90
12833;DHT22;6483;51.310;4.462;2023-04-03T06:06:06;0.30;99.90
12833;DHT22;6483;51.310;4.462;2023-04-03T06:08:36;0.20;99.90
12833;DHT22;6483;51.310;4.462;2023-04-03T06:11:03;0.20;99.90
12833;DHT22;6483;51.310;4.462;2023-04-03T06:13:29;0.30;99.90
12833;DHT22;6483;51.310;4.462;2023-04-03T06:15:55;0.40;99.90
12833;DHT22;6483;51.310;4.462;2023-04-03T06:18:21;0.50;99.90
12833;DHT22;6483;51.310;4.462;2023-04-03T06:20:47;0.70;99.90
12833;DHT22;6483;51.310;4.462;2023-04-03T06:23:12;0.70;99.90
12833;DHT22;6483;51.310;4.462;2023-04-03T06:25:38;0.90;99.90
12833;DHT22;6483;51.310;4.462;2023-04-03T06:28:10;1.00;99.90
12833;DHT22;6483;51.310;4.462;2023-04-03T06:30:38;1.00;99.90
12833;DHT22;6483;51.310;4.462;2023-04-03T06:33:05;1.10;99.90
12833;DHT22;6483;51.310;4.462;2023-04-03T06:35:31;1.40;99.90
12833;DHT22;6483;51.310;4.462;2023-04-03T06:37:59;1.30;99.90
12833;DHT22;6483;51.310;4.462;2023-04-03T06:40:28;1.30;99.90
12833;DHT22;6483;51.310;4.462;2023-04-03T06:42:53;1.40;99.90
12833;DHT22;6483;51.310;4.462;2023-04-03T06:45:22;1.40;99.90
12833;DHT22;6483;51.310;4.462;2023-04-03T06:47:53;1.50;99.90
12833;DHT22;6483;51.310;4.462;2023-04-03T06:50:22;1.60;99.90
12833;DHT22;6483;51.310;4.462;2023-04-03T06:52:49;1.60;99.90
12833;DHT22;6483;51.310;4.462;2023-04-03T06:55:15;1.70;99.90
12833;DHT22;6483;51.310;4.462;2023-04-03T06:57:43;1.80;99.90
12833;DHT22;6483;51.310;4.462;2023-04-03T07:00:16;1.90;99.90
12833;DHT22;6483;51.310;4.462;2023-04-03T07:02:45;2.00;99.90
12833;DHT22;6483;51.310;4.462;2023-04-03T07:05:12;2.10;99.90
12833;DHT22;6483;51.310;4.462;2023-04-03T07:07:39;2.20;99.90
12833;DHT22;6483;51.310;4.462;2023-04-03T07:10:05;2.30;99.90
12833;DHT22;6483;51.310;4.462;2023-04-03T07:12:32;2.50;99.90
12833;DHT22;6483;51.310;4.462;2023-04-03T07:14:57;2.60;99.90
12833;DHT22;6483;51.310;4.462;2023-04-03T07:17:23;2.70;99.90
12833;DHT22;6483;51.310;4.462;2023-04-03T07:19:51;2.70;99.90
12833;DHT22;6483;51.310;4.462;2023-04-03T07:22:18;2.90;99.90
12833;DHT22;6483;51.310;4.462;2023-04-03T07:24:47;2.90;99.90
12833;DHT22;6483;51.310;4.462;2023-04-03T07:27:19;3.00;99.90
12833;DHT22;6483;51.310;4.462;2023-04-03T07:29:45;3.20;99.90
12833;DHT22;6483;51.310;4.462;2023-04-03T07:32:13;3.20;99.90
12833;DHT22;6483;51.310;4.462;2023-04-03T07:34:39;3.30;99.90
12833;DHT22;6483;51.310;4.462;2023-04-03T07:37:08;3.30;99.90
12833;DHT22;6483;51.310;4.462;2023-04-03T07:39:37;3.50;99.90
12833;DHT22;6483;51.310;4.462;2023-04-03T07:42:02;3.60;99.90
12833;DHT22;6483;51.310;4.462;2023-04-03T07:44:29;3.70;99.90
12833;DHT22;6483;51.310;4.462;2023-04-03T07:46:55;3.80;99.90
12833;DHT22;6483;51.310;4.462;2023-04-03T07:49:24;3.80;99.90
12833;DHT22;6483;51.310;4.462;2023-04-03T07:51:51;3.90;99.90
12833;DHT22;6483;51.310;4.462;2023-04-03T07:54:21;4.00;99.90
12833;DHT22;6483;51.310;4.462;2023-04-03T07:56:47;4.10;99.90
12833;DHT22;6483;51.310;4.462;2023-04-03T07:59:13;4.20;99.90
12833;DHT22;6483;51.310;4.462;2023-04-03T08:01:42;4.30;99.90
12833;DHT22;6483;51.310;4.462;2023-04-03T08:04:08;4.50;99.90
12833;DHT22;6483;51.310;4.462;2023-04-03T08:06:34;4.50;99.90
12833;DHT22;6483;51.310;4.462;2023-04-03T08:09:03;4.70;99.90
12833;DHT22;6483;51.310;4.462;2023-04-03T08:11:29;4.80;99.90
12833;DHT22;6483;51.310;4.462;2023-04-03T08:13:55;4.90;99.90
12833;DHT22;6483;51.310;4.462;2023-04-03T08:16:23;5.00;99.90
12833;DHT22;6483;51.310;4.462;2023-04-03T08:18:52;5.00;99.90
12833;DHT22;6483;51.310;4.462;2023-04-03T08:21:21;5.20;99.90
12833;DHT22;6483;51.310;4.462;2023-04-03T08:23:49;5.30;99.90
12833;DHT22;6483;51.310;4.462;2023-04-03T08:26:20;5.40;99.90
12833;DHT22;6483;51.310;4.462;2023-04-03T08:28:47;5.60;99.90
12833;DHT22;6483;51.310;4.462;2023-04-03T08:31:19;6.40;99.90
12833;DHT22;6483;51.310;4.462;2023-04-03T08:33:45;7.70;99.90
12833;DHT22;6483;51.310;4.462;2023-04-03T08:36:23;9.70;99.90
12833;DHT22;6483;51.310;4.462;2023-04-03T08:38:51;10.00;99.90
12833;DHT22;6483;51.310;4.462;2023-04-03T08:41:49;10.50;99.90
12833;DHT22;6483;51.310;4.462;2023-04-03T08:44:43;11.90;99.90
12833;DHT22;6483;51.310;4.462;2023-04-03T08:50:26;13.30;21.60
12833;DHT22;6483;51.310;4.462;2023-04-03T08:52:59;13.70;1.00
12833;DHT22;6483;51.310;4.462;2023-04-03T08:55:37;14.00;1.00
12833;DHT22;6483;51.310;4.462;2023-04-03T08:58:09;14.50;1.00
12833;DHT22;6483;51.310;4.462;2023-04-03T09:01:04;15.00;1.00
12833;DHT22;6483;51.310;4.462;2023-04-03T09:03:33;15.50;1.00
12833;DHT22;6483;51.310;4.462;2023-04-03T09:06:29;15.20;1.00
12833;DHT22;6483;51.310;4.462;2023-04-03T09:12:21;15.20;1.00
12833;DHT22;6483;51.310;4.462;2023-04-03T09:15:15;15.90;1.00
12833;DHT22;6483;51.310;4.462;2023-04-03T09:18:11;16.30;1.00
12833;DHT22;6483;51.310;4.462;2023-04-03T09:21:08;15.50;1.00
12833;DHT22;6483;51.310;4.462;2023-04-03T09:23:52;16.10;1.00
12833;DHT22;6483;51.310;4.462;2023-04-03T09:26:35;17.60;1.00
12833;DHT22;6483;51.310;4.462;2023-04-03T09:29:14;17.30;1.00
12833;DHT22;6483;51.310;4.462;2023-04-03T09:31:43;18.70;1.00
12833;DHT22;6483;51.310;4.462;2023-04-03T09:34:23;18.70;1.00
12833;DHT22;6483;51.310;4.462;2023-04-03T09:37:00;18.30;1.00
12833;DHT22;6483;51.310;4.462;2023-04-03T09:39:53;18.10;1.00
12833;DHT22;6483;51.310;4.462;2023-04-03T09:42:40;18.30;1.00
12833;DHT22;6483;51.310;4.462;2023-04-03T09:45:23;17.90;1.00
12833;DHT22;6483;51.310;4.462;2023-04-03T09:47:49;17.00;1.00
12833;DHT22;6483;51.310;4.462;2023-04-03T09:50:28;17.90;1.00
12833;DHT22;6483;51.310;4.462;2023-04-03T09:52:54;17.90;1.00
12833;DHT22;6483;51.310;4.462;2023-04-03T09:55:26;18.90;1.00
12833;DHT22;6483;51.310;4.462;2023-04-03T09:58:02;19.50;1.00
12833;DHT22;6483;51.310;4.462;2023-04-03T10:00:38;19.50;1.00
12833;DHT22;6483;51.310;4.462;2023-04-03T10:03:20;18.70;1.00
12833;DHT22;6483;51.310;4.462;2023-04-03T10:05:48;16.80;1.00
12833;DHT22;6483;51.310;4.462;2023-04-03T10:10:44;18.00;1.00
12833;DHT22;6483;51.310;4.462;2023-04-03T10:13:13;17.90;1.00
12833;DHT22;6483;51.310;4.462;2023-04-03T10:16:01;18.70;1.00
12833;DHT22;6483;51.310;4.462;2023-04-03T10:33:17;20.00;1.00
12833;DHT22;6483;51.310;4.462;2023-04-03T10:38:46;22.30;1.00
12833;DHT22;6483;51.310;4.462;2023-04-03T10:43:58;19.90;1.00
12833;DHT22;6483;51.310;4.462;2023-04-03T10:46:43;19.40;1.00
12833;DHT22;6483;51.310;4.462;2023-04-03T10:51:44;20.50;1.00
12833;DHT22;6483;51.310;4.462;2023-04-03T10:57:31;21.70;1.00
12833;DHT22;6483;51.310;4.462;2023-04-03T11:00:06;22.40;1.00
12833;DHT22;6483;51.310;4.462;2023-04-03T11:02:57;22.90;1.00
12833;DHT22;6483;51.310;4.462;2023-04-03T11:05:44;22.70;1.00
12833;DHT22;6483;51.310;4.462;2023-04-03T11:10:49;23.70;1.00
12833;DHT22;6483;51.310;4.462;2023-04-03T11:13:56;23.50;1.00
12833;DHT22;6483;51.310;4.462;2023-04-03T11:16:26;23.00;1.00
12833;DHT22;6483;51.310;4.462;2023-04-03T11:18:59;23.20;1.00
12833;DHT22;6483;51.310;4.462;2023-04-03T11:21:32;24.70;1.00
12833;DHT22;6483;51.310;4.462;2023-04-03T11:24:04;24.30;1.00
12833;DHT22;6483;51.310;4.462;2023-04-03T11:26:37;24.00;1.00
12833;DHT22;6483;51.310;4.462;2023-04-03T11:29:14;25.40;1.00
12833;DHT22;6483;51.310;4.462;2023-04-03T11:37:28;24.90;1.00
12833;DHT22;6483;51.310;4.462;2023-04-03T11:40:00;25.10;1.00
12833;DHT22;6483;51.310;4.462;2023-04-03T11:42:33;24.90;1.00
12833;DHT22;6483;51.310;4.462;2023-04-03T11:45:58;24.50;1.00
12833;DHT22;6483;51.310;4.462;2023-04-03T11:53:55;24.20;1.00
12833;DHT22;6483;51.310;4.462;2023-04-03T11:56:40;25.00;1.00
12833;DHT22;6483;51.310;4.462;2023-04-03T12:01:50;24.70;1.00
12833;DHT22;6483;51.310;4.462;2023-04-03T12:04:19;26.00;1.00
12833;DHT22;6483;51.310;4.462;2023-04-03T12:07:12;27.10;1.00
12833;DHT22;6483;51.310;4.462;2023-04-03T12:09:58;28.80;1.00
12833;DHT22;6483;51.310;4.462;2023-04-03T12:12:35;28.10;1.00
12833;DHT22;6483;51.310;4.462;2023-04-03T12:16:05;28.20;1.00
12833;DHT22;6483;51.310;4.462;2023-04-03T12:24:30;27.90;1.00
12833;DHT22;6483;51.310;4.462;2023-04-03T12:27:05;27.40;1.00
12833;DHT22;6483;51.310;4.462;2023-04-03T12:29:36;27.10;1.00
12833;DHT22;6483;51.310;4.462;2023-04-03T12:35:35;25.90;1.00
12833;DHT22;6483;51.310;4.462;2023-04-03T12:41:16;28.50;1.00
12833;DHT22;6483;51.310;4.462;2023-04-03T12:46:52;29.00;1.00
12833;DHT22;6483;51.310;4.462;2023-04-03T12:49:40;29.00;1.00
12833;DHT22;6483;51.310;4.462;2023-04-03T12:52:45;28.90;1.00
12833;DHT22;6483;51.310;4.462;2023-04-03T12:55:20;29.50;1.00
12833;DHT22;6483;51.310;4.462;2023-04-03T12:57:47;29.90;1.00
12833;DHT22;6483;51.310;4.462;2023-04-03T13:00:22;25.80;1.00
12833;DHT22;6483;51.310;4.462;2023-04-03T13:02:53;26.10;1.00
12833;DHT22;6483;51.310;4.462;2023-04-03T13:05:21;27.60;1.00
12833;DHT22;6483;51.310;4.462;2023-04-03T13:08:14;27.30;1.00
12833;DHT22;6483;51.310;4.462;2023-04-03T13:11:20;25.30;1.00
12833;DHT22;6483;51.310;4.462;2023-04-03T13:13:38;25.30;1.00
12833;DHT22;6483;51.310;4.462;2023-04-03T13:16:10;26.60;1.00
12833;DHT22;6483;51.310;4.462;2023-04-03T13:18:37;25.40;1.00
12833;DHT22;6483;51.310;4.462;2023-04-03T13:21:11;27.30;1.00
12833;DHT22;6483;51.310;4.462;2023-04-03T13:23:40;28.00;1.00
12833;DHT22;6483;51.310;4.462;2023-04-03T13:26:20;28.80;1.00
12833;DHT22;6483;51.310;4.462;2023-04-03T13:28:47;27.30;1.00
12833;DHT22;6483;51.310;4.462;2023-04-03T13:31:22;27.20;1.00
12833;DHT22;6483;51.310;4.462;2023-04-03T13:34:27;28.00;1.00
12833;DHT22;6483;51.310;4.462;2023-04-03T13:39:30;30.60;1.00
12833;DHT22;6483;51.310;4.462;2023-04-03T13:42:14;31.50;1.00
12833;DHT22;6483;51.310;4.462;2023-04-03T13:44:41;29.50;1.00
12833;DHT22;6483;51.310;4.462;2023-04-03T13:49:46;30.80;1.00
12833;DHT22;6483;51.310;4.462;2023-04-03T13:52:33;29.90;1.00
12833;DHT22;6483;51.310;4.462;2023-04-03T13:55:18;30.40;1.00
12833;DHT22;6483;51.310;4.462;2023-04-03T13:58:19;29.60;1.00
12833;DHT22;6483;51.310;4.462;2023-04-03T14:00:50;30.00;1.00
12833;DHT22;6483;51.310;4.462;2023-04-03T14:05:59;28.40;1.00
12833;DHT22;6483;51.310;4.462;2023-04-03T14:08:29;27.30;1.00
12833;DHT22;6483;51.310;4.462;2023-04-03T14:10:55;26.60;1.00
12833;DHT22;6483;51.310;4.462;2023-04-03T14:13:22;27.40;1.00
12833;DHT22;6483;51.310;4.462;2023-04-03T14:15:48;28.00;1.00
12833;DHT22;6483;51.310;4.462;2023-04-03T14:18:19;28.50;1.00
12833;DHT22;6483;51.310;4.462;2023-04-03T14:20:46;26.60;1.00
12833;DHT22;6483;51.310;4.462;2023-04-03T14:23:12;25.60;1.00
12833;DHT22;6483;51.310;4.462;2023-04-03T14:25:38;25.10;1.00
12833;DHT22;6483;51.310;4.462;2023-04-03T14:28:21;25.80;1.00
12833;DHT22;6483;51.310;4.462;2023-04-03T14:30:49;26.00;1.00
12833;DHT22;6483;51.310;4.462;2023-04-03T14:33:19;27.40;1.00
12833;DHT22;6483;51.310;4.462;2023-04-03T14:35:46;29.30;1.00
12833;DHT22;6483;51.310;4.462;2023-04-03T14:38:23;28.80;1.00
12833;DHT22;6483;51.310;4.462;2023-04-03T14:40:50;29.40;1.00
12833;DHT22;6483;51.310;4.462;2023-04-03T14:43:16;30.40;1.00
12833;DHT22;6483;51.310;4.462;2023-04-03T14:45:43;31.30;1.00
12833;DHT22;6483;51.310;4.462;2023-04-03T14:48:15;31.30;1.00
12833;DHT22;6483;51.310;4.462;2023-04-03T14:50:43;31.50;1.00
12833;DHT22;6483;51.310;4.462;2023-04-03T14:53:11;30.80;1.00
12833;DHT22;6483;51.310;4.462;2023-04-03T14:55:38;30.30;1.00
12833;DHT22;6483;51.310;4.462;2023-04-03T14:58:03;29.00;1.00
12833;DHT22;6483;51.310;4.462;2023-04-03T15:00:32;28.00;1.00
12833;DHT22;6483;51.310;4.462;2023-04-03T15:02:58;27.20;1.00
12833;DHT22;6483;51.310;4.462;2023-04-03T15:05:24;26.70;1.00
12833;DHT22;6483;51.310;4.462;2023-04-03T15:07:53;27.10;1.00
12833;DHT22;6483;51.310;4.462;2023-04-03T15:10:25;24.40;1.00
12833;DHT22;6483;51.310;4.462;2023-04-03T15:12:51;23.20;1.00
12833;DHT22;6483;51.310;4.462;2023-04-03T15:15:19;23.80;1.00
12833;DHT22;6483;51.310;4.462;2023-04-03T15:17:51;22.20;1.00
12833;DHT22;6483;51.310;4.462;2023-04-03T15:20:22;21.60;1.00
12833;DHT22;6483;51.310;4.462;2023-04-03T15:22:51;21.30;1.00
12833;DHT22;6483;51.310;4.462;2023-04-03T15:25:16;20.60;1.00
12833;DHT22;6483;51.310;4.462;2023-04-03T15:27:44;20.90;1.00
12833;DHT22;6483;51.310;4.462;2023-04-03T15:30:18;21.60;1.00
12833;DHT22;6483;51.310;4.462;2023-04-03T15:32:44;21.60;1.00
12833;DHT22;6483;51.310;4.462;2023-04-03T15:35:10;22.00;1.00
12833;DHT22;6483;51.310;4.462;2023-04-03T15:37:36;21.80;1.00
12833;DHT22;6483;51.310;4.462;2023-04-03T15:40:03;20.80;1.00
12833;DHT22;6483;51.310;4.462;2023-04-03T15:42:29;21.20;1.00
12833;DHT22;6483;51.310;4.462;2023-04-03T15:44:56;21.40;1.00
12833;DHT22;6483;51.310;4.462;2023-04-03T15:47:21;22.30;1.00
12833;DHT22;6483;51.310;4.462;2023-04-03T15:49:47;23.30;1.00
12833;DHT22;6483;51.310;4.462;2023-04-03T15:52:13;23.70;1.00
12833;DHT22;6483;51.310;4.462;2023-04-03T15:54:38;23.10;1.00
12833;DHT22;6483;51.310;4.462;2023-04-03T15:57:07;23.30;1.00
12833;DHT22;6483;51.310;4.462;2023-04-03T15:59:34;23.80;1.00
12833;DHT22;6483;51.310;4.462;2023-04-03T16:02:05;23.60;1.00
12833;DHT22;6483;51.310;4.462;2023-04-03T16:04:32;22.50;1.00
12833;DHT22;6483;51.310;4.462;2023-04-03T16:07:02;22.60;1.00
12833;DHT22;6483;51.310;4.462;2023-04-03T16:09:27;21.70;1.00
12833;DHT22;6483;51.310;4.462;2023-04-03T16:11:53;21.20;1.00
12833;DHT22;6483;51.310;4.462;2023-04-03T16:14:22;21.20;1.00
12833;DHT22;6483;51.310;4.462;2023-04-03T16:16:48;20.50;1.00
12833;DHT22;6483;51.310;4.462;2023-04-03T16:19:14;20.10;1.00
12833;DHT22;6483;51.310;4.462;2023-04-03T16:21:42;21.30;1.00
12833;DHT22;6483;51.310;4.462;2023-04-03T16:24:12;22.20;1.00
12833;DHT22;6483;51.310;4.462;2023-04-03T16:26:42;22.40;1.00
12833;DHT22;6483;51.310;4.462;2023-04-03T16:29:08;22.40;1.00
12833;DHT22;6483;51.310;4.462;2023-04-03T16:31:37;22.70;1.00
12833;DHT22;6483;51.310;4.462;2023-04-03T16:34:03;22.80;1.00
12833;DHT22;6483;51.310;4.462;2023-04-03T16:36:31;22.80;1.00
12833;DHT22;6483;51.310;4.462;2023-04-03T16:38:57;23.00;1.00
12833;DHT22;6483;51.310;4.462;2023-04-03T16:41:23;22.60;1.00
12833;DHT22;6483;51.310;4.462;2023-04-03T16:43:48;22.00;1.00
12833;DHT22;6483;51.310;4.462;2023-04-03T16:46:15;20.40;1.00
12833;DHT22;6483;51.310;4.462;2023-04-03T16:48:44;21.50;1.00
12833;DHT22;6483;51.310;4.462;2023-04-03T16:51:15;21.00;1.00
12833;DHT22;6483;51.310;4.462;2023-04-03T16:53:44;20.50;1.00
12833;DHT22;6483;51.310;4.462;2023-04-03T16:56:11;20.10;1.00
12833;DHT22;6483;51.310;4.462;2023-04-03T16:58:39;20.60;1.00
12833;DHT22;6483;51.310;4.462;2023-04-03T17:01:17;20.70;1.00
12833;DHT22;6483;51.310;4.462;2023-04-03T17:03:43;20.70;1.00
12833;DHT22;6483;51.310;4.462;2023-04-03T17:06:11;19.70;1.00
12833;DHT22;6483;51.310;4.462;2023-04-03T17:08:46;18.30;1.00
12833;DHT22;6483;51.310;4.462;2023-04-03T17:11:21;17.10;1.00
12833;DHT22;6483;51.310;4.462;2023-04-03T17:13:47;16.10;1.00
12833;DHT22;6483;51.310;4.462;2023-04-03T17:16:14;15.20;1.00
12833;DHT22;6483;51.310;4.462;2023-04-03T17:18:41;14.40;1.00
12833;DHT22;6483;51.310;4.462;2023-04-03T17:21:09;13.60;1.00
12833;DHT22;6483;51.310;4.462;2023-04-03T17:23:36;12.90;1.00
12833;DHT22;6483;51.310;4.462;2023-04-03T17:26:03;12.40;1.00
12833;DHT22;6483;51.310;4.462;2023-04-03T17:28:29;12.00;1.00
12833;DHT22;6483;51.310;4.462;2023-04-03T17:30:58;11.70;1.00
12833;DHT22;6483;51.310;4.462;2023-04-03T17:33:24;11.30;1.00
12833;DHT22;6483;51.310;4.462;2023-04-03T17:35:51;11.00;1.00
12833;DHT22;6483;51.310;4.462;2023-04-03T17:38:17;10.50;1.00